Time;durP1;ratioP1;P1;durP2;ratioP2;P2;SDS_P1;SDS_P2;PMS_P1;PMS_P2;Temp;Humidity;BMP_temperature;BMP_pressure;BME280_temperature;BME280_humidity;BME280_pressure;Samples;Min_cycle;Max_cycle;Signal;HPM_P1;HPM_P2
2022/05/14 00:01:00;;;;;;;13.00;4.93;;;10.60;91.30;;;;;;5008600;28;20038;-74
2022/05/14 00:03:28;;;;;;;14.80;5.20;;;10.60;91.20;;;;;;5008757;28;20037;-73
2022/05/14 00:05:55;;;;;;;16.00;5.88;;;10.50;91.10;;;;;;4996129;28;20031;-72
2022/05/14 00:08:23;;;;;;;17.70;5.38;;;10.50;91.40;;;;;;5005739;28;20120;-72
2022/05/14 00:13:34;;;;;;;14.27;5.28;;;10.40;91.30;;;;;;5009484;28;20502;-73
2022/05/14 00:16:00;;;;;;;16.65;6.25;;;10.40;91.70;;;;;;5008678;28;20048;-75
2022/05/14 00:18:26;;;;;;;17.95;6.50;;;10.40;91.70;;;;;;5004943;28;20479;-72
2022/05/14 00:20:52;;;;;;;18.42;7.20;;;10.30;91.40;;;;;;5006374;28;20061;-73
2022/05/14 00:23:18;;;;;;;20.02;7.65;;;10.30;91.60;;;;;;5009391;28;20030;-73
2022/05/14 00:25:44;;;;;;;20.63;7.30;;;10.30;91.90;;;;;;5009692;28;20030;-77
2022/05/14 00:28:11;;;;;;;19.33;7.32;;;10.20;91.60;;;;;;5007550;28;20037;-73
2022/05/14 00:30:37;;;;;;;23.70;7.57;;;10.10;92.00;;;;;;5004478;28;20080;-72
2022/05/14 00:33:04;;;;;;;17.25;7.18;;;10.10;92.10;;;;;;5009214;28;20095;-72
2022/05/14 00:35:30;;;;;;;19.13;7.30;;;10.10;92.40;;;;;;5017450;28;20040;-73
2022/05/14 00:37:56;;;;;;;23.38;7.72;;;10.20;92.20;;;;;;5005666;28;20030;-72
2022/05/14 00:40:27;;;;;;;25.38;8.32;;;10.10;92.30;;;;;;5006332;28;20026;-72
2022/05/14 00:42:53;;;;;;;22.00;8.25;;;10.00;92.10;;;;;;5007265;28;20045;-72
2022/05/14 00:45:19;;;;;;;19.20;7.00;;;10.00;92.30;;;;;;5008289;28;20041;-72
2022/05/14 00:47:51;;;;;;;20.17;7.40;;;9.90;92.60;;;;;;5007814;28;20144;-77
2022/05/14 00:50:34;;;;;;;19.33;6.57;;;10.00;92.80;;;;;;5007975;28;20172;-77
2022/05/14 00:53:12;;;;;;;13.93;6.28;;;10.00;92.70;;;;;;5017344;28;20029;-73
2022/05/14 00:55:38;;;;;;;18.77;6.90;;;10.10;92.50;;;;;;5008590;28;20030;-74
2022/05/14 00:58:08;;;;;;;19.88;7.25;;;10.00;91.90;;;;;;5006444;28;20028;-74
2022/05/14 01:00:34;;;;;;;19.20;6.13;;;9.90;91.70;;;;;;5007878;28;20061;-74
2022/05/14 01:03:00;;;;;;;19.73;6.78;;;9.70;91.90;;;;;;5007110;28;20044;-76
2022/05/14 01:05:26;;;;;;;16.23;6.47;;;9.60;91.90;;;;;;5006956;28;20030;-73
2022/05/14 01:07:54;;;;;;;16.73;6.63;;;9.50;92.10;;;;;;5007569;28;20049;-72
2022/05/14 01:10:24;;;;;;;16.48;7.38;;;9.40;92.30;;;;;;5007378;28;20547;-72
2022/05/14 01:12:55;;;;;;;17.02;7.10;;;9.30;92.40;;;;;;5007776;28;20026;-74
2022/05/14 01:15:35;;;;;;;16.85;7.10;;;9.20;93.00;;;;;;5006130;28;20247;-72
2022/05/14 01:18:01;;;;;;;;;;;9.20;93.50;;;;;;5003877;28;20033;-72
2022/05/14 01:20:27;;;;;;;17.13;6.65;;;9.20;92.90;;;;;;5003394;28;19942;-76
2022/05/14 01:23:04;;;;;;;21.90;6.68;;;9.10;93.40;;;;;;5008261;28;20113;-73
2022/05/14 01:28:29;;;;;;;16.63;7.47;;;9.10;94.10;;;;;;5005296;28;20044;-73
2022/05/14 01:30:59;;;;;;;21.13;6.60;;;9.10;93.80;;;;;;5004359;28;20057;-73
2022/05/14 01:33:26;;;;;;;17.88;5.97;;;9.20;93.90;;;;;;5007755;28;20038;-71
2022/05/14 01:35:51;;;;;;;18.08;6.63;;;9.10;93.10;;;;;;5008142;28;20026;-72
2022/05/14 01:38:19;;;;;;;13.57;5.95;;;9.00;93.50;;;;;;5005846;28;20123;-74
2022/05/14 01:40:45;;;;;;;17.08;5.97;;;9.10;93.50;;;;;;5008205;28;20060;-80
2022/05/14 01:43:10;;;;;;;17.58;6.53;;;9.10;93.40;;;;;;5007587;28;20061;-73
2022/05/14 01:45:36;;;;;;;21.85;6.75;;;9.20;93.50;;;;;;5002779;28;20033;-73
2022/05/14 01:48:02;;;;;;;15.10;5.68;;;9.20;93.80;;;;;;5008339;28;20431;-72
2022/05/14 01:50:28;;;;;;;13.70;5.40;;;9.20;93.70;;;;;;5006579;28;20033;-74
2022/05/14 01:52:54;;;;;;;11.60;4.90;;;9.20;93.50;;;;;;4994382;28;20462;-74
2022/05/14 01:55:20;;;;;;;16.50;5.38;;;9.30;93.30;;;;;;5006370;28;20045;-73
2022/05/14 01:57:45;;;;;;;14.23;4.93;;;9.40;93.00;;;;;;5006591;28;20104;-72
2022/05/14 02:00:14;;;;;;;15.43;5.70;;;9.40;92.70;;;;;;5006373;28;20564;-72
2022/05/14 02:02:40;;;;;;;18.83;6.13;;;9.40;92.60;;;;;;5005270;28;20075;-72
2022/05/14 02:05:06;;;;;;;18.70;6.13;;;9.40;92.60;;;;;;5006574;28;20044;-75
2022/05/14 02:07:31;;;;;;;16.13;5.80;;;9.40;92.50;;;;;;5021411;28;20030;-72
2022/05/14 02:09:57;;;;;;;14.10;5.43;;;9.30;92.50;;;;;;5006499;28;20072;-75
2022/05/14 02:12:22;;;;;;;19.92;5.55;;;9.30;92.50;;;;;;5006021;28;20080;-72
2022/05/14 02:14:48;;;;;;;17.08;6.63;;;9.20;92.40;;;;;;5006160;28;20038;-75
2022/05/14 02:17:14;;;;;;;15.85;5.70;;;9.20;92.70;;;;;;5006953;28;20073;-73
2022/05/14 02:19:39;;;;;;;15.98;5.25;;;9.10;92.70;;;;;;5005948;28;20057;-72
2022/05/14 02:22:05;;;;;;;13.90;5.43;;;9.00;92.70;;;;;;5004819;28;20026;-72
2022/05/14 02:24:33;;;;;;;14.73;5.28;;;9.00;92.50;;;;;;5002500;28;20128;-73
2022/05/14 02:26:58;;;;;;;15.32;4.82;;;8.90;92.10;;;;;;5005557;28;20030;-73
2022/05/14 02:29:24;;;;;;;13.65;5.40;;;8.80;92.40;;;;;;5006916;28;20037;-74
2022/05/14 02:31:51;;;;;;;12.65;4.93;;;8.80;92.60;;;;;;5007161;28;20069;-73
2022/05/14 02:34:17;;;;;;;17.15;6.03;;;8.80;92.40;;;;;;5006343;28;20502;-72
2022/05/14 02:36:43;;;;;;;12.30;5.05;;;8.70;92.70;;;;;;5006284;28;20026;-76
2022/05/14 02:39:09;;;;;;;20.63;5.47;;;8.70;92.70;;;;;;5037120;28;20041;-72
2022/05/14 02:41:35;;;;;;;16.77;5.68;;;8.70;92.70;;;;;;5007449;28;20404;-76
2022/05/14 02:44:00;;;;;;;15.35;5.25;;;8.70;93.00;;;;;;5006393;28;20116;-73
2022/05/14 02:46:27;;;;;;;13.25;5.32;;;8.70;93.00;;;;;;5006111;28;20033;-73
2022/05/14 02:48:52;;;;;;;11.68;5.50;;;8.60;93.00;;;;;;5006166;28;20038;-73
2022/05/14 02:51:18;;;;;;;13.27;5.20;;;8.60;92.90;;;;;;5006204;28;20037;-73
2022/05/14 02:53:44;;;;;;;14.25;6.13;;;8.50;92.90;;;;;;5037347;28;20029;-73
2022/05/14 02:56:09;;;;;;;20.02;5.93;;;8.40;92.90;;;;;;5006730;28;20036;-72
2022/05/14 03:01:19;;;;;;;13.25;5.50;;;8.30;93.20;;;;;;5004659;28;20040;-73
2022/05/14 03:03:45;;;;;;;15.88;5.35;;;8.30;93.50;;;;;;5003868;28;20109;-74
2022/05/14 03:06:11;;;;;;;13.60;5.03;;;8.30;93.60;;;;;;5004053;28;20134;-77
2022/05/14 03:08:37;;;;;;;15.00;5.57;;;8.40;93.20;;;;;;5003869;28;20044;-73
2022/05/14 03:11:03;;;;;;;14.45;5.88;;;8.20;92.90;;;;;;4994533;28;20018;-73
2022/05/14 03:13:30;;;;;;;10.95;4.70;;;8.20;93.00;;;;;;5007258;28;20034;-73
2022/05/14 03:15:56;;;;;;;13.82;5.63;;;8.20;93.20;;;;;;5007481;28;20040;-72
2022/05/14 03:18:21;;;;;;;12.65;5.68;;;8.20;93.40;;;;;;5007106;28;20029;-72
2022/05/14 03:20:48;;;;;;;14.52;5.75;;;8.10;93.50;;;;;;5008749;28;20050;-73
2022/05/14 03:23:15;;;;;;;12.05;5.22;;;8.00;93.60;;;;;;5009269;28;20026;-73
2022/05/14 03:25:40;;;;;;;12.82;6.25;;;8.10;93.80;;;;;;5010732;28;20117;-71
2022/05/14 03:28:06;;;;;;;12.63;5.05;;;8.10;93.60;;;;;;5000443;28;20042;-71
2022/05/14 03:30:32;;;;;;;12.98;6.10;;;8.10;93.50;;;;;;5037829;28;20084;-73
2022/05/14 03:32:58;;;;;;;15.40;6.93;;;8.10;93.40;;;;;;5009554;28;20036;-70
2022/05/14 03:35:23;;;;;;;15.45;7.22;;;8.10;93.30;;;;;;5009394;28;20399;-73
2022/05/14 03:37:49;;;;;;;19.75;7.40;;;8.10;93.40;;;;;;5008459;28;20037;-74
2022/05/14 03:40:15;;;;;;;17.98;7.63;;;8.10;93.60;;;;;;5009609;28;20041;-73
2022/05/14 03:42:42;;;;;;;18.80;7.57;;;8.00;93.80;;;;;;5010320;28;20022;-72
2022/05/14 03:45:08;;;;;;;11.88;6.30;;;8.00;93.90;;;;;;5009457;28;20088;-74
2022/05/14 03:47:34;;;;;;;14.70;7.82;;;8.00;93.80;;;;;;5042208;28;20439;-73
2022/05/14 03:49:59;;;;;;;17.10;7.45;;;8.10;94.10;;;;;;5008304;28;20038;-73
2022/05/14 03:52:25;;;;;;;17.08;7.22;;;8.10;94.30;;;;;;5008831;28;20034;-73
2022/05/14 03:54:51;;;;;;;12.05;7.55;;;8.10;94.10;;;;;;5000574;28;20168;-73
2022/05/14 03:57:16;;;;;;;12.07;6.90;;;8.10;93.90;;;;;;5007654;28;20505;-73
2022/05/14 03:59:42;;;;;;;18.33;8.60;;;8.00;94.00;;;;;;5009293;28;20037;-74
2022/05/14 04:02:08;;;;;;;16.52;7.55;;;8.00;94.00;;;;;;5008948;28;20030;-73
2022/05/14 04:04:34;;;;;;;16.50;7.97;;;8.00;94.50;;;;;;5005899;28;20116;-73
2022/05/14 04:07:00;;;;;;;17.30;8.43;;;8.00;94.30;;;;;;5008241;28;20476;-73
2022/05/14 04:09:27;;;;;;;20.38;8.85;;;8.00;94.20;;;;;;5037293;28;20038;-73
2022/05/14 04:11:54;;;;;;;15.13;8.20;;;7.90;94.00;;;;;;5040586;28;20033;-72
2022/05/14 04:14:21;;;;;;;16.15;7.70;;;7.80;94.10;;;;;;5005758;28;20049;-72
2022/05/14 04:16:47;;;;;;;17.25;7.40;;;7.80;94.10;;;;;;4999261;28;20527;-73
2022/05/14 04:19:12;;;;;;;14.05;7.05;;;7.80;94.10;;;;;;5003519;28;20043;-73
2022/05/14 04:21:38;;;;;;;14.90;7.80;;;7.80;94.10;;;;;;5000931;28;20050;-71
2022/05/14 04:24:04;;;;;;;16.02;7.38;;;7.80;94.10;;;;;;5006611;28;20026;-72
2022/05/14 04:26:30;;;;;;;17.75;7.63;;;7.80;94.10;;;;;;5021856;28;20033;-75
2022/05/14 04:28:56;;;;;;;15.77;6.97;;;7.80;94.10;;;;;;4998712;28;20030;-73
2022/05/14 04:31:22;;;;;;;13.57;6.78;;;7.60;94.10;;;;;;4998976;28;20030;-72
2022/05/14 04:33:49;;;;;;;12.73;7.57;;;7.60;94.10;;;;;;5008201;28;20596;-74
2022/05/14 04:36:15;;;;;;;12.05;6.30;;;7.60;93.90;;;;;;5048101;28;20033;-78
2022/05/14 04:38:41;;;;;;;13.63;6.20;;;7.50;93.80;;;;;;5038687;28;20072;-72
2022/05/14 04:41:07;;;;;;;14.88;7.60;;;7.50;93.90;;;;;;4993582;28;20058;-72
2022/05/14 04:43:33;;;;;;;11.63;6.90;;;7.40;94.00;;;;;;5007374;28;20030;-74
2022/05/14 04:45:59;;;;;;;12.95;6.45;;;7.40;94.20;;;;;;5009170;28;20034;-73
2022/05/14 04:48:25;;;;;;;12.45;6.30;;;7.40;94.40;;;;;;5007801;28;20457;-74
2022/05/14 04:50:51;;;;;;;12.45;6.75;;;7.40;94.40;;;;;;5038966;28;20055;-77
2022/05/14 04:53:16;;;;;;;15.50;7.53;;;7.50;94.50;;;;;;5022664;28;20460;-72
2022/05/14 04:55:42;;;;;;;14.13;7.15;;;7.50;94.50;;;;;;5007937;28;20084;-73
2022/05/14 04:58:09;;;;;;;15.00;6.68;;;7.60;94.90;;;;;;5007518;28;20068;-72
2022/05/14 05:00:36;;;;;;;14.18;7.20;;;7.60;94.60;;;;;;5030283;28;20041;-72
2022/05/14 05:03:19;;;;;;;14.85;6.97;;;7.70;94.60;;;;;;5007760;28;20154;-72
2022/05/14 05:05:56;;;;;;;12.50;7.22;;;7.80;94.50;;;;;;5007557;28;20037;-73
2022/05/14 05:08:25;;;;;;;18.80;8.00;;;7.90;94.70;;;;;;5006244;28;20409;-73
2022/05/14 05:10:51;;;;;;;18.17;8.10;;;7.90;94.90;;;;;;4994854;28;20029;-72
2022/05/14 05:13:20;;;;;;;15.35;8.10;;;8.00;94.90;;;;;;5040190;28;20061;-73
2022/05/14 05:15:46;;;;;;;15.45;8.50;;;8.10;95.00;;;;;;5038497;28;20041;-72
2022/05/14 05:18:13;;;;;;;16.65;7.25;;;8.20;95.10;;;;;;5008061;28;20026;-72
2022/05/14 05:20:42;;;;;;;16.35;7.10;;;8.30;94.90;;;;;;4992744;28;20062;-73
2022/05/14 05:23:12;;;;;;;15.43;7.10;;;8.40;94.90;;;;;;5008421;28;20048;-72
2022/05/14 05:25:38;;;;;;;15.45;7.93;;;8.60;94.60;;;;;;5007371;28;20034;-73
2022/05/14 05:28:04;;;;;;;16.50;7.88;;;8.70;94.30;;;;;;5006428;28;20025;-73
2022/05/14 05:30:30;;;;;;;17.63;7.80;;;8.80;94.50;;;;;;5003110;28;20088;-73
2022/05/14 05:32:56;;;;;;;18.23;7.03;;;8.90;94.50;;;;;;5007243;28;20097;-74
2022/05/14 05:35:22;;;;;;;20.40;8.07;;;8.90;94.00;;;;;;5005379;28;20549;-74
2022/05/14 05:37:48;;;;;;;15.57;7.63;;;9.00;94.30;;;;;;5007082;28;20045;-73
2022/05/14 05:40:15;;;;;;;18.55;8.05;;;9.10;94.20;;;;;;5007073;28;20084;-73
2022/05/14 05:42:42;;;;;;;18.48;7.85;;;9.20;93.80;;;;;;4994997;28;20357;-73
2022/05/14 05:45:09;;;;;;;17.45;7.28;;;9.20;93.90;;;;;;5002520;28;20034;-75
2022/05/14 05:47:34;;;;;;;17.40;7.50;;;9.30;93.60;;;;;;4998678;28;20095;-73
2022/05/14 05:50:00;;;;;;;18.55;8.27;;;9.40;93.60;;;;;;5004439;28;20041;-76
2022/05/14 05:52:25;;;;;;;18.85;7.30;;;9.50;93.60;;;;;;5006570;28;20064;-72
2022/05/14 05:57:39;;;;;;;15.93;7.35;;;9.70;93.20;;;;;;5003963;28;20029;-73
2022/05/14 06:00:09;;;;;;;14.77;6.82;;;9.80;93.60;;;;;;5005655;28;20046;-75
2022/05/14 06:02:35;;;;;;;18.35;7.85;;;9.90;93.40;;;;;;5010932;28;20030;-73
2022/05/14 06:05:01;;;;;;;15.52;6.82;;;9.90;93.00;;;;;;4999901;28;20029;-73
2022/05/14 06:07:26;;;;;;;18.08;7.72;;;10.00;93.30;;;;;;4999263;28;20061;-72
2022/05/14 06:09:52;;;;;;;19.00;7.68;;;10.00;93.20;;;;;;5001372;28;20039;-73
2022/05/14 06:12:18;;;;;;;16.70;7.03;;;10.10;92.80;;;;;;5006541;28;20380;-77
2022/05/14 06:14:44;;;;;;;19.40;7.10;;;10.10;93.00;;;;;;5001630;28;20031;-74
2022/05/14 06:17:10;;;;;;;15.65;6.80;;;10.20;92.90;;;;;;5003843;28;20038;-73
2022/05/14 06:19:36;;;;;;;14.02;7.38;;;10.30;92.50;;;;;;4995618;28;20038;-75
2022/05/14 06:22:05;;;;;;;15.63;6.93;;;10.30;92.40;;;;;;5002112;28;20372;-73
2022/05/14 06:24:30;;;;;;;14.88;7.78;;;10.30;92.20;;;;;;5006265;28;20113;-74
2022/05/14 06:26:56;;;;;;;16.05;6.43;;;10.40;92.60;;;;;;5003718;28;20053;-73
2022/05/14 06:29:23;;;;;;;22.88;7.20;;;10.50;92.70;;;;;;5001976;28;20033;-73
2022/05/14 06:31:48;;;;;;;13.77;6.78;;;10.50;92.50;;;;;;5003096;28;20037;-72
2022/05/14 06:34:14;;;;;;;13.43;6.53;;;10.70;92.60;;;;;;5001621;28;20029;-72
2022/05/14 06:36:40;;;;;;;17.63;7.03;;;10.70;92.60;;;;;;4999829;28;20033;-72
2022/05/14 06:39:06;;;;;;;11.27;5.78;;;10.80;92.50;;;;;;5006902;28;20428;-73
2022/05/14 06:41:31;;;;;;;15.88;6.72;;;10.80;92.70;;;;;;5015849;28;20534;-74
2022/05/14 06:43:57;;;;;;;22.25;6.32;;;11.00;92.60;;;;;;5000627;28;20030;-74
2022/05/14 06:46:23;;;;;;;20.23;7.10;;;11.10;92.00;;;;;;5009096;28;20491;-72
2022/05/14 06:48:48;;;;;;;15.23;6.28;;;11.20;92.00;;;;;;4993618;28;20495;-72
2022/05/14 06:51:19;;;;;;;14.82;5.85;;;11.40;92.20;;;;;;5009004;28;20353;-73
2022/05/14 06:53:46;;;;;;;16.80;6.18;;;11.50;91.70;;;;;;5014650;28;20076;-75
2022/05/14 06:56:14;;;;;;;14.32;6.07;;;11.60;92.20;;;;;;5008590;28;20660;-73
2022/05/14 06:58:41;;;;;;;17.23;6.72;;;11.80;91.70;;;;;;5010564;28;20038;-73
2022/05/14 07:01:09;;;;;;;16.13;5.30;;;11.80;91.90;;;;;;5009428;28;20036;-72
2022/05/14 07:06:40;;;;;;;18.60;5.20;;;12.00;91.10;;;;;;5005293;28;20060;-73
2022/05/14 07:09:16;;;;;;;15.25;4.68;;;12.10;91.00;;;;;;5008927;28;20030;-72
2022/05/14 07:11:44;;;;;;;16.42;5.00;;;12.30;90.40;;;;;;5015053;28;20034;-72
2022/05/14 07:14:12;;;;;;;19.90;4.20;;;12.40;89.90;;;;;;5026631;28;20048;-73
2022/05/14 07:16:38;;;;;;;18.50;4.90;;;12.60;90.10;;;;;;5009904;28;20117;-73
2022/05/14 07:19:08;;;;;;;14.70;3.92;;;12.80;89.00;;;;;;5009682;28;20034;-73
2022/05/14 07:21:39;;;;;;;19.77;4.88;;;13.00;86.90;;;;;;5010978;28;20061;-75
2022/05/14 07:24:07;;;;;;;17.23;4.35;;;13.30;85.40;;;;;;5012400;28;20781;-72
2022/05/14 07:26:38;;;;;;;20.23;4.45;;;13.40;85.40;;;;;;5010365;28;20464;-74
2022/05/14 07:29:09;;;;;;;14.30;4.50;;;13.60;85.80;;;;;;5009867;28;20034;-72
2022/05/14 07:31:35;;;;;;;19.67;5.10;;;13.80;86.20;;;;;;5011756;28;20030;-75
2022/05/14 07:34:02;;;;;;;22.70;4.32;;;14.10;84.80;;;;;;5016758;28;20029;-74
2022/05/14 07:36:32;;;;;;;18.05;4.28;;;14.30;83.40;;;;;;5017655;28;20059;-72
2022/05/14 07:39:00;;;;;;;;;;;14.40;81.70;;;;;;5015611;28;20029;-72
2022/05/14 07:41:28;;;;;;;16.23;4.85;;;14.30;81.40;;;;;;5005438;28;19913;-74
2022/05/14 07:43:57;;;;;;;20.52;5.88;;;14.40;81.40;;;;;;5019606;28;20048;-75
2022/05/14 07:46:29;;;;;;;16.63;5.55;;;14.50;82.30;;;;;;5023311;28;20026;-72
2022/05/14 07:48:57;;;;;;;18.90;5.63;;;14.70;80.10;;;;;;5043071;28;20389;-73
2022/05/14 07:51:22;;;;;;;18.95;5.53;;;14.90;79.70;;;;;;5010968;28;20030;-76
2022/05/14 07:53:48;;;;;;;19.60;4.95;;;14.90;77.10;;;;;;5010233;28;20045;-74
2022/05/14 07:56:14;;;;;;;18.17;5.18;;;15.00;78.40;;;;;;5008814;28;20030;-72
2022/05/14 07:58:42;;;;;;;19.08;4.93;;;15.10;77.40;;;;;;5005277;28;20034;-75
2022/05/14 08:01:07;;;;;;;17.13;5.10;;;15.00;79.50;;;;;;5009116;28;20122;-72
2022/05/14 08:03:33;;;;;;;19.85;5.68;;;15.10;77.30;;;;;;5010543;28;20478;-73
2022/05/14 08:05:59;;;;;;;20.25;5.47;;;15.10;79.30;;;;;;5009410;28;20692;-81
2022/05/14 08:08:26;;;;;;;17.58;5.30;;;15.20;78.20;;;;;;5007399;28;20069;-76
2022/05/14 08:10:53;;;;;;;22.40;6.28;;;15.30;78.60;;;;;;5006276;28;20134;-78
2022/05/14 08:13:20;;;;;;;17.48;4.80;;;15.50;78.50;;;;;;5008228;28;20113;-73
2022/05/14 08:15:48;;;;;;;19.02;5.80;;;15.70;76.40;;;;;;5005595;28;20026;-74
2022/05/14 08:18:15;;;;;;;15.15;5.47;;;15.80;76.90;;;;;;5007955;28;20025;-73
2022/05/14 08:20:42;;;;;;;20.13;5.45;;;15.90;76.80;;;;;;5009941;28;20077;-78
2022/05/14 08:25:56;;;;;;;17.80;5.15;;;16.10;74.80;;;;;;5007274;28;20041;-75
2022/05/14 08:28:22;;;;;;;23.33;5.65;;;16.20;72.00;;;;;;5002032;28;20033;-76
2022/05/14 08:30:48;;;;;;;18.00;4.93;;;16.10;75.10;;;;;;5009266;28;20080;-75
2022/05/14 08:33:13;;;;;;;15.27;4.53;;;16.30;72.90;;;;;;5006003;28;20033;-74
2022/05/14 08:35:40;;;;;;;17.25;4.57;;;16.40;71.30;;;;;;5005425;28;20037;-75
2022/05/14 08:38:06;;;;;;;15.77;4.07;;;16.40;71.80;;;;;;5001273;28;20099;-74
2022/05/14 08:40:41;;;;;;;17.58;4.47;;;16.40;71.90;;;;;;5014926;28;20127;-74
2022/05/14 08:43:19;;;;;;;14.95;4.40;;;16.50;71.50;;;;;;5019419;28;20046;-75
2022/05/14 08:45:44;;;;;;;15.15;4.32;;;16.60;71.30;;;;;;4999268;28;20077;-73
2022/05/14 08:48:14;;;;;;;15.88;4.03;;;16.60;69.50;;;;;;4997887;28;22082;-75
2022/05/14 08:50:40;;;;;;;15.35;4.00;;;16.60;71.80;;;;;;5000540;28;20030;-75
2022/05/14 08:53:12;;;;;;;14.63;3.60;;;16.80;71.60;;;;;;5001556;28;20029;-76
2022/05/14 08:55:55;;;;;;;16.98;3.47;;;17.00;72.20;;;;;;5004697;28;20025;-72
2022/05/14 08:58:46;;;;;;;15.48;3.42;;;17.00;67.80;;;;;;5002416;28;20026;-75
2022/05/14 09:01:18;;;;;;;11.10;3.25;;;16.90;67.80;;;;;;5003784;28;20022;-76
2022/05/14 09:03:44;;;;;;;16.10;3.35;;;17.00;67.30;;;;;;5006789;28;20026;-72
2022/05/14 09:06:10;;;;;;;14.35;3.20;;;17.00;70.30;;;;;;5004556;28;20029;-73
2022/05/14 09:08:36;;;;;;;15.98;3.88;;;17.10;69.10;;;;;;5006771;28;20044;-75
2022/05/14 09:11:10;;;;;;;13.00;3.33;;;17.30;70.00;;;;;;5041026;28;20057;-73
2022/05/14 09:13:45;;;;;;;14.65;3.20;;;17.50;69.10;;;;;;5025031;28;20034;-73
2022/05/14 09:16:29;;;;;;;14.05;3.05;;;17.60;68.80;;;;;;5007317;28;20014;-74
2022/05/14 09:18:55;;;;;;;10.98;2.58;;;17.70;66.50;;;;;;4995718;28;20039;-73
2022/05/14 09:21:26;;;;;;;15.07;2.70;;;17.80;66.50;;;;;;5000140;28;20052;-72
2022/05/14 09:23:56;;;;;;;17.65;3.85;;;17.80;64.90;;;;;;4996072;28;20165;-71
2022/05/14 09:26:33;;;;;;;9.75;2.60;;;17.60;65.50;;;;;;5009556;28;20025;-74
2022/05/14 09:29:27;;;;;;;16.23;3.45;;;17.70;65.60;;;;;;5022246;28;20399;-75
2022/05/14 09:31:59;;;;;;;11.75;3.03;;;17.60;65.90;;;;;;5013095;28;20064;-73
2022/05/14 09:34:26;;;;;;;13.40;2.90;;;17.70;65.50;;;;;;5001223;28;20038;-74
2022/05/14 09:36:52;;;;;;;14.10;3.25;;;17.80;66.30;;;;;;5023621;28;20105;-72
2022/05/14 09:39:21;;;;;;;11.77;3.13;;;17.90;62.70;;;;;;5012722;28;20034;-75
2022/05/14 09:41:52;;;;;;;13.25;3.45;;;17.90;64.20;;;;;;5001095;28;20041;-75
2022/05/14 09:44:28;;;;;;;15.40;3.13;;;17.90;64.50;;;;;;5017486;28;20436;-76
2022/05/14 09:47:07;;;;;;;14.30;3.83;;;18.10;65.20;;;;;;5028175;28;20033;-73
2022/05/14 09:49:32;;;;;;;14.95;3.00;;;18.30;62.70;;;;;;4998838;28;20125;-75
2022/05/14 09:52:07;;;;;;;14.13;3.22;;;18.40;65.50;;;;;;5005857;28;20108;-75
2022/05/14 09:54:34;;;;;;;13.07;3.10;;;18.50;64.50;;;;;;5000879;28;20033;-75
2022/05/14 09:57:12;;;;;;;11.43;2.83;;;18.50;61.10;;;;;;4999468;28;20058;-76
2022/05/14 09:59:48;;;;;;;9.63;2.78;;;18.50;62.90;;;;;;5007651;28;20048;-74
2022/05/14 10:02:44;;;;;;;11.63;3.00;;;18.50;63.40;;;;;;5001613;28;20022;-72
2022/05/14 10:05:40;;;;;;;17.75;3.40;;;18.50;62.20;;;;;;5004070;28;20029;-76
2022/05/14 10:08:48;;;;;;;11.57;2.80;;;18.50;63.00;;;;;;5005419;28;20061;-80
2022/05/14 10:11:29;;;;;;;15.52;3.35;;;18.80;63.20;;;;;;5004803;28;20040;-78
2022/05/14 10:14:27;;;;;;;11.45;3.10;;;18.90;61.00;;;;;;5008755;28;20080;-75
2022/05/14 10:17:20;;;;;;;12.55;2.85;;;19.00;61.00;;;;;;5007179;28;20076;-75
2022/05/14 10:19:58;;;;;;;14.65;3.25;;;19.10;61.70;;;;;;5002037;28;20058;-75
2022/05/14 10:28:55;;;;;;;10.63;2.45;;;19.30;60.40;;;;;;4988138;28;20041;-74
2022/05/14 10:31:53;;;;;;;12.50;2.42;;;19.40;60.20;;;;;;5024544;28;20038;-74
2022/05/14 10:34:24;;;;;;;15.57;2.97;;;19.60;58.30;;;;;;5013983;28;20104;-72
2022/05/14 10:36:58;;;;;;;11.13;2.75;;;19.50;57.60;;;;;;5025199;28;20172;-75
2022/05/14 10:39:46;;;;;;;10.88;2.72;;;19.70;60.70;;;;;;5016391;28;20044;-74
2022/05/14 10:42:44;;;;;;;11.02;2.25;;;19.80;58.60;;;;;;5025012;28;20046;-76
2022/05/14 10:45:21;;;;;;;10.10;2.20;;;19.90;59.10;;;;;;5008751;28;20033;-74
2022/05/14 10:47:57;;;;;;;14.93;2.90;;;20.20;57.70;;;;;;5024968;28;20049;-70
2022/05/14 10:50:23;;;;;;;8.40;2.63;;;20.30;54.90;;;;;;5011526;28;20116;-73
2022/05/14 10:52:50;;;;;;;12.48;3.35;;;20.50;55.30;;;;;;5025049;28;20182;-73
2022/05/14 10:55:30;;;;;;;10.98;2.45;;;20.30;57.30;;;;;;5025339;28;20071;-74
2022/05/14 10:58:05;;;;;;;9.82;2.15;;;20.40;58.80;;;;;;5025360;28;20382;-75
2022/05/14 11:00:30;;;;;;;11.93;2.40;;;20.60;57.30;;;;;;5017374;28;20128;-76
2022/05/14 11:02:59;;;;;;;13.48;2.80;;;20.60;55.60;;;;;;5025094;28;20132;-75
2022/05/14 11:05:30;;;;;;;13.05;2.55;;;20.60;54.30;;;;;;5008888;28;20036;-72
2022/05/14 11:08:12;;;;;;;13.63;3.03;;;20.60;56.00;;;;;;5013871;28;20097;-78
2022/05/14 11:10:39;;;;;;;9.88;2.17;;;20.40;56.00;;;;;;5002472;28;20026;-73
2022/05/14 11:13:23;;;;;;;10.35;2.70;;;20.40;55.80;;;;;;5008174;28;20033;-73
2022/05/14 11:16:05;;;;;;;11.60;2.85;;;20.50;55.80;;;;;;5023116;28;20026;-78
2022/05/14 11:18:42;;;;;;;13.07;2.60;;;20.40;54.70;;;;;;5038236;28;20080;-75
2022/05/14 11:21:07;;;;;;;13.80;2.90;;;20.50;56.00;;;;;;5039641;28;20050;-78
2022/05/14 11:23:55;;;;;;;12.18;2.63;;;20.60;55.50;;;;;;5008214;28;20399;-75
2022/05/14 11:26:21;;;;;;;12.55;2.80;;;20.70;56.00;;;;;;5008217;28;20030;-78
2022/05/14 11:29:10;;;;;;;11.35;3.38;;;21.10;54.50;;;;;;5005637;28;20026;-76
2022/05/14 11:31:40;;;;;;;13.27;2.95;;;21.40;55.60;;;;;;4995505;28;20066;-73
2022/05/14 11:34:26;;;;;;;10.50;2.10;;;21.90;54.10;;;;;;4997474;28;20049;-75
2022/05/14 11:36:56;;;;;;;9.93;2.67;;;23.70;47.50;;;;;;4999223;28;20026;-74
2022/05/14 11:39:24;;;;;;;;;;;24.50;47.00;;;;;;5005302;28;20153;-72
2022/05/14 11:42:06;;;;;;;10.20;2.60;;;24.30;46.80;;;;;;5019121;28;19909;-71
2022/05/14 11:44:42;;;;;;;11.10;2.47;;;22.90;46.90;;;;;;5006910;28;20034;-72
2022/05/14 11:47:44;;;;;;;9.65;2.38;;;22.00;51.20;;;;;;5010196;28;20060;-73
2022/05/14 11:50:13;;;;;;;9.10;2.55;;;21.40;50.50;;;;;;5004047;28;20061;-74
2022/05/14 11:53:17;;;;;;;10.98;2.42;;;21.00;52.30;;;;;;5021980;28;20026;-72
2022/05/14 11:56:01;;;;;;;9.95;2.30;;;20.80;53.50;;;;;;5009498;28;20148;-73
2022/05/14 11:58:46;;;;;;;9.95;2.50;;;21.20;52.40;;;;;;5012972;28;20062;-73
2022/05/14 12:01:26;;;;;;;15.90;3.50;;;21.60;51.70;;;;;;5007540;28;20038;-74
2022/05/14 12:03:53;;;;;;;12.35;2.63;;;21.80;52.50;;;;;;5010168;28;20539;-76
2022/05/14 12:06:44;;;;;;;10.50;2.60;;;21.80;52.10;;;;;;5005979;28;20021;-73
2022/05/14 12:09:18;;;;;;;9.65;2.45;;;21.50;51.60;;;;;;5003022;28;20177;-74
2022/05/14 12:11:45;;;;;;;11.45;2.80;;;21.50;51.50;;;;;;5003549;28;20026;-75
2022/05/14 12:14:32;;;;;;;11.30;2.60;;;21.00;51.00;;;;;;5003564;28;20536;-73
2022/05/14 12:17:01;;;;;;;10.98;2.20;;;20.80;54.30;;;;;;5003303;28;20061;-75
2022/05/14 12:19:33;;;;;;;11.15;2.47;;;20.60;53.50;;;;;;5008353;28;20118;-70
2022/05/14 12:22:05;;;;;;;10.35;2.35;;;20.60;54.90;;;;;;5033853;28;20073;-73
2022/05/14 12:24:35;;;;;;;11.93;2.63;;;21.10;51.70;;;;;;5005433;28;20076;-76
2022/05/14 12:27:01;;;;;;;15.32;2.60;;;21.60;50.50;;;;;;5006076;28;20057;-73
2022/05/14 12:29:30;;;;;;;12.48;2.50;;;21.50;52.40;;;;;;5005640;28;20048;-74
2022/05/14 12:34:46;;;;;;;12.15;2.92;;;21.50;51.70;;;;;;5006635;28;20048;-72
2022/05/14 12:37:28;;;;;;;9.95;2.97;;;21.40;50.60;;;;;;5006407;28;20096;-76
2022/05/14 12:39:57;;;;;;;10.63;2.78;;;21.30;52.00;;;;;;5005836;28;20038;-73
2022/05/14 12:42:36;;;;;;;10.18;2.65;;;21.30;53.00;;;;;;5019710;28;20105;-76
2022/05/14 12:45:03;;;;;;;;;;;21.10;52.60;;;;;;5005432;28;20107;-77
2022/05/14 12:47:31;;;;;;;9.88;2.17;;;21.10;53.00;;;;;;5000671;28;19955;-73
2022/05/14 12:49:57;;;;;;;8.13;2.53;;;21.10;52.80;;;;;;5005533;28;20025;-73
2022/05/14 12:52:32;;;;;;;10.93;2.80;;;20.90;52.60;;;;;;5004913;28;20424;-72
2022/05/14 12:55:04;;;;;;;13.02;2.78;;;20.80;53.30;;;;;;5016587;28;20029;-74
2022/05/14 12:57:31;;;;;;;10.38;2.63;;;20.80;54.30;;;;;;5011697;28;20034;-74
2022/05/14 12:59:57;;;;;;;9.82;2.40;;;20.80;52.10;;;;;;5020832;28;20026;-75
2022/05/14 13:02:36;;;;;;;13.15;2.85;;;20.70;52.80;;;;;;5007974;28;20159;-79
2022/05/14 13:05:13;;;;;;;13.25;2.22;;;20.60;53.20;;;;;;5006196;28;20021;-74
2022/05/14 13:07:47;;;;;;;8.60;2.50;;;20.60;55.20;;;;;;4998450;28;20034;-71
2022/05/14 13:10:16;;;;;;;11.32;2.45;;;20.60;53.00;;;;;;5023286;28;20515;-74
2022/05/14 13:12:49;;;;;;;10.65;2.38;;;20.60;53.50;;;;;;5006770;28;20025;-73
2022/05/14 13:15:14;;;;;;;10.95;2.60;;;20.70;54.50;;;;;;5003647;28;20120;-73
2022/05/14 13:17:41;;;;;;;11.43;2.40;;;21.20;52.80;;;;;;4995865;28;20112;-76
2022/05/14 13:20:23;;;;;;;12.18;2.53;;;21.40;51.20;;;;;;5004933;28;20049;-76
2022/05/14 13:22:49;;;;;;;10.45;2.78;;;21.10;51.50;;;;;;5005363;28;20029;-74